sensor_id;sensor_type;location;lat;lon;timestamp;P1;durP1;ratioP1;P2;durP2;ratioP2
7773;SDS011;3931;42.260;23.116;2023-02-28T00:01:29;11.90;;;6.77;;
7773;SDS011;3931;42.260;23.116;2023-02-28T00:03:56;10.73;;;5.73;;
7773;SDS011;3931;42.260;23.116;2023-02-28T00:06:22;13.63;;;5.63;;
7773;SDS011;3931;42.260;23.116;2023-02-28T00:08:49;11.03;;;4.77;;
7773;SDS011;3931;42.260;23.116;2023-02-28T00:11:15;9.10;;;4.63;;
7773;SDS011;3931;42.260;23.116;2023-02-28T00:13:44;17.90;;;6.07;;
7773;SDS011;3931;42.260;23.116;2023-02-28T00:16:13;14.60;;;6.10;;
7773;SDS011;3931;42.260;23.116;2023-02-28T00:18:40;18.53;;;7.00;;
7773;SDS011;3931;42.260;23.116;2023-02-28T00:21:07;20.13;;;7.30;;
7773;SDS011;3931;42.260;23.116;2023-02-28T00:23:33;11.10;;;5.20;;
7773;SDS011;3931;42.260;23.116;2023-02-28T00:25:59;8.67;;;4.60;;
7773;SDS011;3931;42.260;23.116;2023-02-28T00:28:26;9.90;;;5.63;;
7773;SDS011;3931;42.260;23.116;2023-02-28T00:30:52;17.23;;;7.60;;
7773;SDS011;3931;42.260;23.116;2023-02-28T00:33:18;13.93;;;6.20;;
7773;SDS011;3931;42.260;23.116;2023-02-28T00:35:44;15.00;;;6.13;;
7773;SDS011;3931;42.260;23.116;2023-02-28T00:38:11;11.10;;;6.33;;
7773;SDS011;3931;42.260;23.116;2023-02-28T00:40:37;12.57;;;5.57;;
7773;SDS011;3931;42.260;23.116;2023-02-28T00:43:03;14.60;;;6.60;;
7773;SDS011;3931;42.260;23.116;2023-02-28T00:45:29;10.17;;;5.67;;
7773;SDS011;3931;42.260;23.116;2023-02-28T00:47:56;9.63;;;5.07;;
7773;SDS011;3931;42.260;23.116;2023-02-28T00:50:22;10.47;;;5.40;;
7773;SDS011;3931;42.260;23.116;2023-02-28T00:52:48;9.83;;;5.20;;
7773;SDS011;3931;42.260;23.116;2023-02-28T00:55:14;7.40;;;4.20;;
7773;SDS011;3931;42.260;23.116;2023-02-28T00:57:40;8.93;;;3.83;;
7773;SDS011;3931;42.260;23.116;2023-02-28T01:00:07;4.50;;;3.60;;
7773;SDS011;3931;42.260;23.116;2023-02-28T01:02:34;8.80;;;4.70;;
7773;SDS011;3931;42.260;23.116;2023-02-28T01:05:01;12.20;;;5.03;;
7773;SDS011;3931;42.260;23.116;2023-02-28T01:07:27;20.60;;;9.80;;
7773;SDS011;3931;42.260;23.116;2023-02-28T01:09:53;13.43;;;7.40;;
7773;SDS011;3931;42.260;23.116;2023-02-28T01:12:19;11.53;;;5.17;;
7773;SDS011;3931;42.260;23.116;2023-02-28T01:14:45;11.60;;;4.90;;
7773;SDS011;3931;42.260;23.116;2023-02-28T01:17:11;10.23;;;5.27;;
7773;SDS011;3931;42.260;23.116;2023-02-28T01:19:37;11.00;;;5.43;;
7773;SDS011;3931;42.260;23.116;2023-02-28T01:22:04;13.20;;;8.03;;
7773;SDS011;3931;42.260;23.116;2023-02-28T01:24:31;11.07;;;6.83;;
7773;SDS011;3931;42.260;23.116;2023-02-28T01:26:57;32.97;;;13.07;;
7773;SDS011;3931;42.260;23.116;2023-02-28T01:29:23;37.33;;;12.60;;
7773;SDS011;3931;42.260;23.116;2023-02-28T01:31:49;30.43;;;12.67;;
7773;SDS011;3931;42.260;23.116;2023-02-28T01:34:15;13.00;;;5.97;;
7773;SDS011;3931;42.260;23.116;2023-02-28T01:36:41;12.13;;;4.93;;
7773;SDS011;3931;42.260;23.116;2023-02-28T01:39:08;6.93;;;3.60;;
7773;SDS011;3931;42.260;23.116;2023-02-28T01:41:34;8.30;;;3.53;;
7773;SDS011;3931;42.260;23.116;2023-02-28T01:44:02;12.90;;;3.80;;
7773;SDS011;3931;42.260;23.116;2023-02-28T01:46:30;7.07;;;3.07;;
7773;SDS011;3931;42.260;23.116;2023-02-28T01:48:58;11.43;;;2.80;;
7773;SDS011;3931;42.260;23.116;2023-02-28T01:51:29;9.80;;;2.40;;
7773;SDS011;3931;42.260;23.116;2023-02-28T01:54:00;6.23;;;2.77;;
7773;SDS011;3931;42.260;23.116;2023-02-28T01:56:32;7.33;;;3.13;;
7773;SDS011;3931;42.260;23.116;2023-02-28T01:59:01;8.43;;;3.03;;
7773;SDS011;3931;42.260;23.116;2023-02-28T02:01:28;4.30;;;2.83;;
7773;SDS011;3931;42.260;23.116;2023-02-28T02:03:56;10.70;;;3.57;;
7773;SDS011;3931;42.260;23.116;2023-02-28T02:06:25;4.73;;;3.60;;
7773;SDS011;3931;42.260;23.116;2023-02-28T02:08:54;7.83;;;4.10;;
7773;SDS011;3931;42.260;23.116;2023-02-28T02:11:22;12.40;;;4.30;;
7773;SDS011;3931;42.260;23.116;2023-02-28T02:14:01;6.70;;;3.73;;
7773;SDS011;3931;42.260;23.116;2023-02-28T02:16:57;10.00;;;4.63;;
7773;SDS011;3931;42.260;23.116;2023-02-28T02:19:43;11.10;;;5.10;;
7773;SDS011;3931;42.260;23.116;2023-02-28T02:22:37;9.10;;;4.73;;
7773;SDS011;3931;42.260;23.116;2023-02-28T02:25:31;17.20;;;5.30;;
7773;SDS011;3931;42.260;23.116;2023-02-28T02:31:31;15.27;;;7.00;;
7773;SDS011;3931;42.260;23.116;2023-02-28T02:34:28;17.83;;;9.83;;
7773;SDS011;3931;42.260;23.116;2023-02-28T02:37:08;22.33;;;11.17;;
7773;SDS011;3931;42.260;23.116;2023-02-28T02:39:43;12.83;;;5.77;;
7773;SDS011;3931;42.260;23.116;2023-02-28T02:42:16;10.43;;;5.80;;
7773;SDS011;3931;42.260;23.116;2023-02-28T02:44:48;7.40;;;5.47;;
7773;SDS011;3931;42.260;23.116;2023-02-28T02:47:19;10.00;;;5.83;;
7773;SDS011;3931;42.260;23.116;2023-02-28T02:49:50;12.70;;;6.53;;
7773;SDS011;3931;42.260;23.116;2023-02-28T02:52:21;14.57;;;6.30;;
7773;SDS011;3931;42.260;23.116;2023-02-28T02:54:54;15.07;;;8.07;;
7773;SDS011;3931;42.260;23.116;2023-02-28T02:57:23;13.33;;;8.10;;
7773;SDS011;3931;42.260;23.116;2023-02-28T02:59:55;12.37;;;6.83;;
7773;SDS011;3931;42.260;23.116;2023-02-28T03:02:23;21.47;;;9.60;;
7773;SDS011;3931;42.260;23.116;2023-02-28T03:04:51;11.40;;;7.17;;
7773;SDS011;3931;42.260;23.116;2023-02-28T03:07:25;12.20;;;7.70;;
7773;SDS011;3931;42.260;23.116;2023-02-28T03:09:52;11.30;;;7.30;;
7773;SDS011;3931;42.260;23.116;2023-02-28T03:12:19;12.60;;;7.30;;
7773;SDS011;3931;42.260;23.116;2023-02-28T03:14:49;11.27;;;6.73;;
7773;SDS011;3931;42.260;23.116;2023-02-28T03:17:24;12.93;;;5.47;;
7773;SDS011;3931;42.260;23.116;2023-02-28T03:20:03;17.63;;;7.27;;
7773;SDS011;3931;42.260;23.116;2023-02-28T03:22:37;11.90;;;7.50;;
7773;SDS011;3931;42.260;23.116;2023-02-28T03:25:16;13.50;;;6.93;;
7773;SDS011;3931;42.260;23.116;2023-02-28T03:27:47;12.70;;;6.97;;
7773;SDS011;3931;42.260;23.116;2023-02-28T03:30:22;11.93;;;7.07;;
7773;SDS011;3931;42.260;23.116;2023-02-28T03:32:55;20.20;;;8.20;;
7773;SDS011;3931;42.260;23.116;2023-02-28T03:35:28;17.73;;;8.63;;
7773;SDS011;3931;42.260;23.116;2023-02-28T03:38:00;16.63;;;9.03;;
7773;SDS011;3931;42.260;23.116;2023-02-28T03:40:31;14.63;;;8.33;;
7773;SDS011;3931;42.260;23.116;2023-02-28T03:42:59;23.03;;;10.93;;
7773;SDS011;3931;42.260;23.116;2023-02-28T03:45:29;24.33;;;13.97;;
7773;SDS011;3931;42.260;23.116;2023-02-28T03:48:01;43.23;;;28.83;;
7773;SDS011;3931;42.260;23.116;2023-02-28T03:50:34;38.70;;;28.73;;
7773;SDS011;3931;42.260;23.116;2023-02-28T03:53:04;53.20;;;37.83;;
7773;SDS011;3931;42.260;23.116;2023-02-28T03:55:34;44.83;;;32.50;;
7773;SDS011;3931;42.260;23.116;2023-02-28T03:58:05;60.70;;;38.23;;
7773;SDS011;3931;42.260;23.116;2023-02-28T04:00:37;64.37;;;45.20;;
7773;SDS011;3931;42.260;23.116;2023-02-28T04:03:08;71.93;;;46.17;;
7773;SDS011;3931;42.260;23.116;2023-02-28T04:05:40;71.83;;;47.23;;
7773;SDS011;3931;42.260;23.116;2023-02-28T04:08:15;92.87;;;54.67;;
7773;SDS011;3931;42.260;23.116;2023-02-28T04:10:41;64.73;;;39.90;;
7773;SDS011;3931;42.260;23.116;2023-02-28T04:13:10;79.57;;;35.97;;
7773;SDS011;3931;42.260;23.116;2023-02-28T04:15:36;70.30;;;30.73;;
7773;SDS011;3931;42.260;23.116;2023-02-28T04:18:02;37.90;;;18.10;;
7773;SDS011;3931;42.260;23.116;2023-02-28T04:20:28;31.27;;;16.10;;
7773;SDS011;3931;42.260;23.116;2023-02-28T04:22:55;39.20;;;14.13;;
7773;SDS011;3931;42.260;23.116;2023-02-28T04:25:21;31.57;;;17.30;;
7773;SDS011;3931;42.260;23.116;2023-02-28T04:27:47;24.07;;;13.53;;
7773;SDS011;3931;42.260;23.116;2023-02-28T04:30:13;25.00;;;12.80;;
7773;SDS011;3931;42.260;23.116;2023-02-28T04:32:39;22.63;;;11.10;;
7773;SDS011;3931;42.260;23.116;2023-02-28T04:35:06;21.10;;;14.00;;
7773;SDS011;3931;42.260;23.116;2023-02-28T04:37:33;26.70;;;14.17;;
7773;SDS011;3931;42.260;23.116;2023-02-28T04:40:00;26.10;;;14.13;;
7773;SDS011;3931;42.260;23.116;2023-02-28T04:42:26;24.93;;;12.30;;
7773;SDS011;3931;42.260;23.116;2023-02-28T04:44:52;22.98;;;13.20;;
7773;SDS011;3931;42.260;23.116;2023-02-28T04:47:18;23.20;;;11.63;;
7773;SDS011;3931;42.260;23.116;2023-02-28T04:49:45;22.07;;;12.13;;
7773;SDS011;3931;42.260;23.116;2023-02-28T04:52:11;26.83;;;13.60;;
7773;SDS011;3931;42.260;23.116;2023-02-28T04:54:38;23.10;;;13.57;;
7773;SDS011;3931;42.260;23.116;2023-02-28T04:57:05;26.40;;;13.63;;
7773;SDS011;3931;42.260;23.116;2023-02-28T04:59:31;21.03;;;12.47;;
7773;SDS011;3931;42.260;23.116;2023-02-28T05:01:57;25.43;;;12.40;;
7773;SDS011;3931;42.260;23.116;2023-02-28T05:04:23;48.50;;;12.27;;
7773;SDS011;3931;42.260;23.116;2023-02-28T05:06:49;34.63;;;16.93;;
7773;SDS011;3931;42.260;23.116;2023-02-28T05:09:16;49.93;;;18.10;;
7773;SDS011;3931;42.260;23.116;2023-02-28T05:11:42;97.13;;;46.03;;
7773;SDS011;3931;42.260;23.116;2023-02-28T05:14:10;62.97;;;30.40;;
7773;SDS011;3931;42.260;23.116;2023-02-28T05:16:37;61.13;;;31.10;;
7773;SDS011;3931;42.260;23.116;2023-02-28T05:19:03;57.60;;;32.00;;
7773;SDS011;3931;42.260;23.116;2023-02-28T05:21:30;37.33;;;16.70;;
7773;SDS011;3931;42.260;23.116;2023-02-28T05:24:00;29.63;;;17.40;;
7773;SDS011;3931;42.260;23.116;2023-02-28T05:26:27;32.50;;;15.60;;
7773;SDS011;3931;42.260;23.116;2023-02-28T05:28:54;21.13;;;10.17;;
7773;SDS011;3931;42.260;23.116;2023-02-28T05:31:20;23.90;;;9.30;;
7773;SDS011;3931;42.260;23.116;2023-02-28T05:33:47;18.50;;;11.27;;
7773;SDS011;3931;42.260;23.116;2023-02-28T05:36:13;17.83;;;10.47;;
7773;SDS011;3931;42.260;23.116;2023-02-28T05:38:39;23.43;;;12.03;;
7773;SDS011;3931;42.260;23.116;2023-02-28T05:41:06;20.77;;;10.57;;
7773;SDS011;3931;42.260;23.116;2023-02-28T05:43:32;26.43;;;12.63;;
7773;SDS011;3931;42.260;23.116;2023-02-28T05:46:01;35.13;;;12.50;;
7773;SDS011;3931;42.260;23.116;2023-02-28T05:48:29;20.97;;;12.40;;
7773;SDS011;3931;42.260;23.116;2023-02-28T05:50:56;21.57;;;11.87;;
7773;SDS011;3931;42.260;23.116;2023-02-28T05:53:23;30.70;;;14.27;;
7773;SDS011;3931;42.260;23.116;2023-02-28T05:55:49;31.43;;;14.37;;
7773;SDS011;3931;42.260;23.116;2023-02-28T05:58:15;35.57;;;16.27;;
7773;SDS011;3931;42.260;23.116;2023-02-28T06:00:42;38.07;;;16.33;;
7773;SDS011;3931;42.260;23.116;2023-02-28T06:03:14;32.83;;;15.50;;
7773;SDS011;3931;42.260;23.116;2023-02-28T06:05:41;30.90;;;14.60;;
7773;SDS011;3931;42.260;23.116;2023-02-28T06:08:07;27.50;;;12.57;;
7773;SDS011;3931;42.260;23.116;2023-02-28T06:10:33;21.40;;;9.90;;
7773;SDS011;3931;42.260;23.116;2023-02-28T06:13:00;20.33;;;11.30;;
7773;SDS011;3931;42.260;23.116;2023-02-28T06:15:27;42.53;;;12.37;;
7773;SDS011;3931;42.260;23.116;2023-02-28T06:17:54;17.73;;;11.80;;
7773;SDS011;3931;42.260;23.116;2023-02-28T06:20:22;18.60;;;9.97;;
7773;SDS011;3931;42.260;23.116;2023-02-28T06:22:49;23.20;;;11.80;;
7773;SDS011;3931;42.260;23.116;2023-02-28T06:25:16;28.47;;;16.00;;
7773;SDS011;3931;42.260;23.116;2023-02-28T06:27:43;22.90;;;12.47;;
7773;SDS011;3931;42.260;23.116;2023-02-28T06:30:10;24.80;;;13.37;;
7773;SDS011;3931;42.260;23.116;2023-02-28T06:32:36;18.20;;;12.37;;
7773;SDS011;3931;42.260;23.116;2023-02-28T06:35:03;18.83;;;10.90;;
7773;SDS011;3931;42.260;23.116;2023-02-28T06:37:30;15.40;;;8.73;;
7773;SDS011;3931;42.260;23.116;2023-02-28T06:39:56;11.80;;;7.67;;
7773;SDS011;3931;42.260;23.116;2023-02-28T06:42:23;11.63;;;7.50;;
7773;SDS011;3931;42.260;23.116;2023-02-28T06:44:50;14.30;;;8.93;;
7773;SDS011;3931;42.260;23.116;2023-02-28T06:47:16;19.83;;;10.23;;
7773;SDS011;3931;42.260;23.116;2023-02-28T06:49:42;23.20;;;9.87;;
7773;SDS011;3931;42.260;23.116;2023-02-28T06:52:10;15.90;;;8.97;;
7773;SDS011;3931;42.260;23.116;2023-02-28T06:54:36;19.07;;;10.87;;
7773;SDS011;3931;42.260;23.116;2023-02-28T06:57:03;17.73;;;9.97;;
7773;SDS011;3931;42.260;23.116;2023-02-28T06:59:29;14.67;;;9.43;;
7773;SDS011;3931;42.260;23.116;2023-02-28T07:01:55;16.30;;;7.50;;
7773;SDS011;3931;42.260;23.116;2023-02-28T07:04:22;14.47;;;7.50;;
7773;SDS011;3931;42.260;23.116;2023-02-28T07:06:48;12.10;;;7.70;;
7773;SDS011;3931;42.260;23.116;2023-02-28T07:09:14;18.90;;;8.83;;
7773;SDS011;3931;42.260;23.116;2023-02-28T07:11:40;13.13;;;8.60;;
7773;SDS011;3931;42.260;23.116;2023-02-28T07:14:08;11.63;;;7.77;;
7773;SDS011;3931;42.260;23.116;2023-02-28T07:16:35;13.80;;;8.37;;
7773;SDS011;3931;42.260;23.116;2023-02-28T07:19:01;16.10;;;8.40;;
7773;SDS011;3931;42.260;23.116;2023-02-28T07:21:27;13.90;;;7.80;;
7773;SDS011;3931;42.260;23.116;2023-02-28T07:23:53;14.67;;;7.93;;
7773;SDS011;3931;42.260;23.116;2023-02-28T07:26:19;20.70;;;9.60;;
7773;SDS011;3931;42.260;23.116;2023-02-28T07:28:46;16.07;;;8.10;;
7773;SDS011;3931;42.260;23.116;2023-02-28T07:31:14;23.77;;;7.67;;
7773;SDS011;3931;42.260;23.116;2023-02-28T07:33:41;15.97;;;7.53;;
7773;SDS011;3931;42.260;23.116;2023-02-28T07:36:08;13.40;;;8.47;;
7773;SDS011;3931;42.260;23.116;2023-02-28T07:38:39;12.47;;;8.13;;
7773;SDS011;3931;42.260;23.116;2023-02-28T07:41:05;16.67;;;13.13;;
7773;SDS011;3931;42.260;23.116;2023-02-28T07:43:31;12.60;;;8.50;;
7773;SDS011;3931;42.260;23.116;2023-02-28T07:46:00;12.80;;;7.77;;
7773;SDS011;3931;42.260;23.116;2023-02-28T07:48:28;12.77;;;8.50;;
7773;SDS011;3931;42.260;23.116;2023-02-28T07:50:54;14.23;;;8.90;;
7773;SDS011;3931;42.260;23.116;2023-02-28T07:53:21;20.97;;;13.73;;
7773;SDS011;3931;42.260;23.116;2023-02-28T07:55:47;19.33;;;10.83;;
7773;SDS011;3931;42.260;23.116;2023-02-28T07:58:13;14.73;;;8.60;;
7773;SDS011;3931;42.260;23.116;2023-02-28T08:00:39;24.00;;;14.60;;
7773;SDS011;3931;42.260;23.116;2023-02-28T08:03:06;18.80;;;9.83;;
7773;SDS011;3931;42.260;23.116;2023-02-28T08:05:38;14.73;;;10.10;;
7773;SDS011;3931;42.260;23.116;2023-02-28T08:08:04;17.00;;;10.33;;
7773;SDS011;3931;42.260;23.116;2023-02-28T08:10:31;33.07;;;9.60;;
7773;SDS011;3931;42.260;23.116;2023-02-28T08:12:57;22.70;;;11.70;;
7773;SDS011;3931;42.260;23.116;2023-02-28T08:15:23;18.43;;;11.37;;
7773;SDS011;3931;42.260;23.116;2023-02-28T08:17:49;18.07;;;11.90;;
7773;SDS011;3931;42.260;23.116;2023-02-28T08:20:15;19.37;;;10.57;;
7773;SDS011;3931;42.260;23.116;2023-02-28T08:22:41;14.60;;;7.63;;
7773;SDS011;3931;42.260;23.116;2023-02-28T08:25:08;13.33;;;8.57;;
7773;SDS011;3931;42.260;23.116;2023-02-28T08:27:35;18.27;;;9.67;;
7773;SDS011;3931;42.260;23.116;2023-02-28T08:30:01;39.10;;;20.90;;
7773;SDS011;3931;42.260;23.116;2023-02-28T08:32:28;26.50;;;14.00;;
7773;SDS011;3931;42.260;23.116;2023-02-28T08:34:54;27.90;;;13.17;;
7773;SDS011;3931;42.260;23.116;2023-02-28T08:37:20;26.50;;;11.50;;
7773;SDS011;3931;42.260;23.116;2023-02-28T08:39:46;41.27;;;19.43;;
7773;SDS011;3931;42.260;23.116;2023-02-28T08:42:12;18.50;;;9.90;;
7773;SDS011;3931;42.260;23.116;2023-02-28T08:44:38;30.50;;;11.50;;
7773;SDS011;3931;42.260;23.116;2023-02-28T08:47:05;23.70;;;10.67;;
7773;SDS011;3931;42.260;23.116;2023-02-28T08:49:31;18.13;;;9.63;;
7773;SDS011;3931;42.260;23.116;2023-02-28T08:51:57;14.47;;;9.23;;
7773;SDS011;3931;42.260;23.116;2023-02-28T08:54:24;30.97;;;7.60;;
7773;SDS011;3931;42.260;23.116;2023-02-28T08:56:50;18.53;;;7.77;;
7773;SDS011;3931;42.260;23.116;2023-02-28T08:59:17;31.07;;;9.47;;
7773;SDS011;3931;42.260;23.116;2023-02-28T09:01:43;22.73;;;8.30;;
7773;SDS011;3931;42.260;23.116;2023-02-28T09:04:09;16.13;;;8.37;;
7773;SDS011;3931;42.260;23.116;2023-02-28T09:06:36;21.33;;;8.57;;
7773;SDS011;3931;42.260;23.116;2023-02-28T09:09:03;29.03;;;9.50;;
7773;SDS011;3931;42.260;23.116;2023-02-28T09:11:31;24.50;;;9.03;;
7773;SDS011;3931;42.260;23.116;2023-02-28T09:13:58;20.67;;;9.50;;
7773;SDS011;3931;42.260;23.116;2023-02-28T09:16:25;22.63;;;9.80;;
7773;SDS011;3931;42.260;23.116;2023-02-28T09:18:51;19.93;;;8.23;;
7773;SDS011;3931;42.260;23.116;2023-02-28T09:21:18;16.90;;;8.33;;
7773;SDS011;3931;42.260;23.116;2023-02-28T09:23:45;18.33;;;9.27;;
7773;SDS011;3931;42.260;23.116;2023-02-28T09:26:13;22.07;;;9.90;;
7773;SDS011;3931;42.260;23.116;2023-02-28T09:28:40;17.00;;;8.80;;
7773;SDS011;3931;42.260;23.116;2023-02-28T09:31:10;32.57;;;11.30;;
7773;SDS011;3931;42.260;23.116;2023-02-28T09:33:38;32.73;;;10.67;;
7773;SDS011;3931;42.260;23.116;2023-02-28T09:36:04;19.83;;;9.50;;
7773;SDS011;3931;42.260;23.116;2023-02-28T09:38:31;29.03;;;12.20;;
7773;SDS011;3931;42.260;23.116;2023-02-28T09:40:58;16.33;;;8.63;;
7773;SDS011;3931;42.260;23.116;2023-02-28T09:43:26;24.80;;;9.80;;
7773;SDS011;3931;42.260;23.116;2023-02-28T09:45:59;17.77;;;9.70;;
7773;SDS011;3931;42.260;23.116;2023-02-28T09:48:32;24.10;;;10.60;;
7773;SDS011;3931;42.260;23.116;2023-02-28T09:51:02;23.57;;;10.80;;
7773;SDS011;3931;42.260;23.116;2023-02-28T09:53:30;35.97;;;9.93;;
7773;SDS011;3931;42.260;23.116;2023-02-28T09:56:00;25.83;;;10.47;;
7773;SDS011;3931;42.260;23.116;2023-02-28T09:58:32;19.50;;;9.77;;
7773;SDS011;3931;42.260;23.116;2023-02-28T10:01:06;22.20;;;10.90;;
7773;SDS011;3931;42.260;23.116;2023-02-28T10:03:39;17.27;;;9.50;;
7773;SDS011;3931;42.260;23.116;2023-02-28T10:06:11;35.60;;;10.47;;
7773;SDS011;3931;42.260;23.116;2023-02-28T10:08:40;28.90;;;11.70;;
7773;SDS011;3931;42.260;23.116;2023-02-28T10:11:16;27.30;;;10.20;;
7773;SDS011;3931;42.260;23.116;2023-02-28T10:13:48;35.63;;;10.87;;
7773;SDS011;3931;42.260;23.116;2023-02-28T10:16:20;24.10;;;10.73;;
7773;SDS011;3931;42.260;23.116;2023-02-28T10:18:52;24.63;;;9.90;;
7773;SDS011;3931;42.260;23.116;2023-02-28T10:21:23;43.77;;;12.37;;
7773;SDS011;3931;42.260;23.116;2023-02-28T10:23:56;22.83;;;10.53;;
7773;SDS011;3931;42.260;23.116;2023-02-28T10:26:29;32.77;;;9.73;;
7773;SDS011;3931;42.260;23.116;2023-02-28T10:28:57;37.53;;;10.37;;
7773;SDS011;3931;42.260;23.116;2023-02-28T10:31:23;28.93;;;10.00;;
7773;SDS011;3931;42.260;23.116;2023-02-28T10:33:49;23.73;;;9.63;;
7773;SDS011;3931;42.260;23.116;2023-02-28T10:36:17;19.87;;;9.43;;
7773;SDS011;3931;42.260;23.116;2023-02-28T10:38:45;34.53;;;9.53;;
7773;SDS011;3931;42.260;23.116;2023-02-28T10:41:12;36.60;;;10.80;;
7773;SDS011;3931;42.260;23.116;2023-02-28T10:43:41;31.83;;;11.30;;
7773;SDS011;3931;42.260;23.116;2023-02-28T10:46:11;17.60;;;9.83;;
7773;SDS011;3931;42.260;23.116;2023-02-28T10:48:59;38.43;;;10.37;;
7773;SDS011;3931;42.260;23.116;2023-02-28T10:51:33;25.87;;;10.13;;
7773;SDS011;3931;42.260;23.116;2023-02-28T10:54:01;29.57;;;10.13;;
7773;SDS011;3931;42.260;23.116;2023-02-28T10:56:29;37.57;;;10.70;;
7773;SDS011;3931;42.260;23.116;2023-02-28T10:58:56;34.77;;;8.27;;
7773;SDS011;3931;42.260;23.116;2023-02-28T11:01:24;28.20;;;9.60;;
7773;SDS011;3931;42.260;23.116;2023-02-28T11:03:59;31.63;;;8.67;;
7773;SDS011;3931;42.260;23.116;2023-02-28T11:06:26;27.80;;;8.73;;
7773;SDS011;3931;42.260;23.116;2023-02-28T11:08:56;25.47;;;7.80;;
7773;SDS011;3931;42.260;23.116;2023-02-28T11:11:25;37.30;;;9.70;;
7773;SDS011;3931;42.260;23.116;2023-02-28T11:13:53;72.10;;;10.80;;
7773;SDS011;3931;42.260;23.116;2023-02-28T11:16:21;28.83;;;8.00;;
7773;SDS011;3931;42.260;23.116;2023-02-28T11:18:57;27.40;;;9.33;;
7773;SDS011;3931;42.260;23.116;2023-02-28T11:21:26;35.10;;;9.20;;
7773;SDS011;3931;42.260;23.116;2023-02-28T11:23:56;36.93;;;9.50;;
7773;SDS011;3931;42.260;23.116;2023-02-28T11:26:35;28.93;;;9.50;;
7773;SDS011;3931;42.260;23.116;2023-02-28T11:29:03;32.43;;;9.43;;
7773;SDS011;3931;42.260;23.116;2023-02-28T11:31:36;63.63;;;9.93;;
7773;SDS011;3931;42.260;23.116;2023-02-28T11:34:07;17.83;;;9.03;;
7773;SDS011;3931;42.260;23.116;2023-02-28T11:36:53;25.97;;;9.93;;
7773;SDS011;3931;42.260;23.116;2023-02-28T11:39:22;21.87;;;9.33;;
7773;SDS011;3931;42.260;23.116;2023-02-28T11:41:53;19.13;;;8.77;;
7773;SDS011;3931;42.260;23.116;2023-02-28T11:44:33;31.07;;;10.77;;
7773;SDS011;3931;42.260;23.116;2023-02-28T11:47:11;21.57;;;9.17;;
7773;SDS011;3931;42.260;23.116;2023-02-28T11:49:43;20.73;;;9.77;;
7773;SDS011;3931;42.260;23.116;2023-02-28T11:52:19;28.20;;;10.40;;
7773;SDS011;3931;42.260;23.116;2023-02-28T11:55:01;23.70;;;8.40;;
7773;SDS011;3931;42.260;23.116;2023-02-28T11:57:41;25.57;;;9.80;;
7773;SDS011;3931;42.260;23.116;2023-02-28T12:00:25;27.80;;;10.17;;
7773;SDS011;3931;42.260;23.116;2023-02-28T12:03:07;42.43;;;8.93;;
7773;SDS011;3931;42.260;23.116;2023-02-28T12:05:43;25.70;;;8.77;;
7773;SDS011;3931;42.260;23.116;2023-02-28T12:08:18;21.47;;;10.83;;
7773;SDS011;3931;42.260;23.116;2023-02-28T12:10:54;33.63;;;9.10;;
7773;SDS011;3931;42.260;23.116;2023-02-28T12:13:29;23.33;;;9.00;;
7773;SDS011;3931;42.260;23.116;2023-02-28T12:16:12;34.70;;;9.30;;
7773;SDS011;3931;42.260;23.116;2023-02-28T12:18:51;28.03;;;11.53;;
7773;SDS011;3931;42.260;23.116;2023-02-28T12:21:29;26.30;;;12.37;;
7773;SDS011;3931;42.260;23.116;2023-02-28T12:27:18;20.83;;;9.07;;
7773;SDS011;3931;42.260;23.116;2023-02-28T12:29:50;21.03;;;10.30;;
7773;SDS011;3931;42.260;23.116;2023-02-28T12:32:23;28.47;;;10.13;;
7773;SDS011;3931;42.260;23.116;2023-02-28T12:34:54;26.90;;;10.70;;
7773;SDS011;3931;42.260;23.116;2023-02-28T12:37:25;30.50;;;10.90;;
7773;SDS011;3931;42.260;23.116;2023-02-28T12:40:01;28.63;;;9.93;;
7773;SDS011;3931;42.260;23.116;2023-02-28T12:42:31;42.43;;;10.40;;
7773;SDS011;3931;42.260;23.116;2023-02-28T12:45:03;22.90;;;10.07;;
7773;SDS011;3931;42.260;23.116;2023-02-28T12:47:34;26.00;;;10.63;;
7773;SDS011;3931;42.260;23.116;2023-02-28T12:50:02;19.43;;;10.60;;
7773;SDS011;3931;42.260;23.116;2023-02-28T12:52:31;28.00;;;10.53;;
7773;SDS011;3931;42.260;23.116;2023-02-28T12:55:09;24.53;;;9.90;;
7773;SDS011;3931;42.260;23.116;2023-02-28T12:57:41;20.93;;;10.50;;
7773;SDS011;3931;42.260;23.116;2023-02-28T13:00:14;21.30;;;10.30;;
7773;SDS011;3931;42.260;23.116;2023-02-28T13:05:46;22.57;;;11.07;;
7773;SDS011;3931;42.260;23.116;2023-02-28T13:08:36;20.00;;;11.40;;
7773;SDS011;3931;42.260;23.116;2023-02-28T13:11:25;23.30;;;10.23;;
7773;SDS011;3931;42.260;23.116;2023-02-28T13:13:58;29.53;;;11.53;;
7773;SDS011;3931;42.260;23.116;2023-02-28T13:16:27;21.50;;;10.10;;
7773;SDS011;3931;42.260;23.116;2023-02-28T13:18:56;22.83;;;11.10;;
7773;SDS011;3931;42.260;23.116;2023-02-28T13:21:41;30.93;;;11.50;;
7773;SDS011;3931;42.260;23.116;2023-02-28T13:24:08;28.63;;;12.00;;
7773;SDS011;3931;42.260;23.116;2023-02-28T13:29:52;50.50;;;11.40;;
7773;SDS011;3931;42.260;23.116;2023-02-28T13:32:28;27.00;;;10.90;;
7773;SDS011;3931;42.260;23.116;2023-02-28T13:35:12;26.03;;;11.53;;
7773;SDS011;3931;42.260;23.116;2023-02-28T13:37:42;30.87;;;11.83;;
7773;SDS011;3931;42.260;23.116;2023-02-28T13:40:31;19.40;;;10.43;;
7773;SDS011;3931;42.260;23.116;2023-02-28T13:43:01;20.80;;;10.83;;
7773;SDS011;3931;42.260;23.116;2023-02-28T13:45:29;18.10;;;10.17;;
7773;SDS011;3931;42.260;23.116;2023-02-28T13:48:02;28.60;;;11.73;;
7773;SDS011;3931;42.260;23.116;2023-02-28T13:50:31;19.27;;;10.40;;
7773;SDS011;3931;42.260;23.116;2023-02-28T13:56:05;20.93;;;10.50;;
7773;SDS011;3931;42.260;23.116;2023-02-28T13:58:46;27.03;;;16.07;;
7773;SDS011;3931;42.260;23.116;2023-02-28T14:07:06;21.10;;;10.43;;
7773;SDS011;3931;42.260;23.116;2023-02-28T14:09:35;19.83;;;10.50;;
7773;SDS011;3931;42.260;23.116;2023-02-28T14:18:27;22.50;;;10.67;;
7773;SDS011;3931;42.260;23.116;2023-02-28T14:21:02;27.80;;;12.30;;
7773;SDS011;3931;42.260;23.116;2023-02-28T14:23:39;29.03;;;11.57;;
7773;SDS011;3931;42.260;23.116;2023-02-28T14:26:33;25.93;;;15.20;;
7773;SDS011;3931;42.260;23.116;2023-02-28T14:29:19;33.67;;;13.00;;
7773;SDS011;3931;42.260;23.116;2023-02-28T14:32:01;29.10;;;12.30;;
7773;SDS011;3931;42.260;23.116;2023-02-28T14:34:36;20.30;;;12.33;;
7773;SDS011;3931;42.260;23.116;2023-02-28T14:37:09;29.60;;;15.07;;
7773;SDS011;3931;42.260;23.116;2023-02-28T14:39:41;25.70;;;13.67;;
7773;SDS011;3931;42.260;23.116;2023-02-28T14:44:53;26.50;;;12.67;;
7773;SDS011;3931;42.260;23.116;2023-02-28T14:47:21;29.17;;;12.33;;
7773;SDS011;3931;42.260;23.116;2023-02-28T14:49:52;38.03;;;13.43;;
7773;SDS011;3931;42.260;23.116;2023-02-28T14:52:20;38.30;;;14.40;;
7773;SDS011;3931;42.260;23.116;2023-02-28T14:54:51;31.00;;;13.03;;
7773;SDS011;3931;42.260;23.116;2023-02-28T14:57:21;32.30;;;14.50;;
7773;SDS011;3931;42.260;23.116;2023-02-28T14:59:56;27.63;;;12.13;;
7773;SDS011;3931;42.260;23.116;2023-02-28T15:02:24;27.10;;;12.53;;
7773;SDS011;3931;42.260;23.116;2023-02-28T15:04:55;35.43;;;11.40;;
7773;SDS011;3931;42.260;23.116;2023-02-28T15:07:22;34.23;;;10.27;;
7773;SDS011;3931;42.260;23.116;2023-02-28T15:10:06;19.10;;;9.10;;
7773;SDS011;3931;42.260;23.116;2023-02-28T15:12:34;30.13;;;9.80;;
7773;SDS011;3931;42.260;23.116;2023-02-28T15:15:01;29.60;;;16.77;;
7773;SDS011;3931;42.260;23.116;2023-02-28T15:17:27;38.53;;;12.47;;
7773;SDS011;3931;42.260;23.116;2023-02-28T15:19:55;41.80;;;12.10;;
7773;SDS011;3931;42.260;23.116;2023-02-28T15:22:23;19.43;;;9.67;;
7773;SDS011;3931;42.260;23.116;2023-02-28T15:24:56;32.53;;;10.87;;
7773;SDS011;3931;42.260;23.116;2023-02-28T15:27:25;23.73;;;10.93;;
7773;SDS011;3931;42.260;23.116;2023-02-28T15:29:53;18.30;;;9.70;;